createdAt,value
2019-05-17T00:00:47.453Z,997.48
2019-05-17T00:01:46.921Z,997.51
2019-05-17T00:02:46.572Z,997.51
2019-05-17T00:03:47.086Z,997.49
2019-05-17T00:04:46.985Z,997.52
2019-05-17T00:05:46.605Z,997.50
2019-05-17T00:06:47.682Z,997.47
2019-05-17T00:07:47.551Z,997.46
2019-05-17T00:08:47.257Z,997.46
2019-05-17T00:09:47.710Z,997.43
2019-05-17T00:10:46.517Z,997.40
2019-05-17T00:11:47.306Z,997.39
2019-05-17T00:12:47.130Z,997.40
2019-05-17T00:13:46.600Z,997.44
2019-05-17T00:14:47.277Z,997.40
2019-05-17T00:15:47.402Z,997.39
2019-05-17T00:16:46.928Z,997.39
2019-05-17T00:17:46.861Z,997.41
2019-05-17T00:18:46.356Z,997.37
2019-05-17T00:19:46.458Z,997.37
2019-05-17T00:20:46.540Z,997.35
2019-05-17T00:21:47.562Z,997.35
2019-05-17T00:22:47.196Z,997.33
2019-05-17T00:23:47.006Z,997.29
2019-05-17T00:24:47.727Z,997.28
2019-05-17T00:25:46.993Z,997.26
2019-05-17T00:26:46.701Z,997.27
2019-05-17T00:27:47.357Z,997.27
2019-05-17T00:28:46.933Z,997.28
2019-05-17T00:29:46.509Z,997.29
2019-05-17T00:30:46.572Z,997.22
2019-05-17T00:31:46.221Z,997.22
2019-05-17T00:32:47.612Z,997.23
2019-05-17T00:33:47.101Z,997.21
2019-05-17T00:34:46.999Z,997.17
2019-05-17T00:35:46.902Z,997.18
2019-05-17T00:36:46.961Z,997.20
2019-05-17T00:37:46.574Z,997.19
2019-05-17T00:38:51.238Z,997.16
2019-05-17T00:39:47.163Z,997.14
2019-05-17T00:40:47.046Z,997.14
2019-05-17T00:41:46.989Z,997.18
2019-05-17T00:42:46.762Z,997.15
2019-05-17T00:43:46.308Z,997.19
2019-05-17T00:44:47.359Z,997.14
2019-05-17T00:45:46.855Z,997.15
2019-05-17T00:46:46.741Z,997.11
2019-05-17T00:47:46.833Z,997.09
2019-05-17T00:48:46.659Z,997.09
2019-05-17T00:49:46.535Z,997.10
2019-05-17T00:50:52.312Z,997.10
2019-05-17T00:51:47.480Z,997.10
2019-05-17T00:52:47.546Z,997.08
2019-05-17T00:53:46.803Z,997.06
2019-05-17T00:54:46.882Z,997.09
2019-05-17T00:55:46.748Z,997.04
2019-05-17T00:56:46.501Z,996.99
2019-05-17T00:57:47.480Z,997.01
2019-05-17T00:58:47.743Z,997.03
2019-05-17T00:59:47.605Z,997.03
2019-05-17T01:00:47.846Z,997.02
2019-05-17T01:01:46.967Z,997.04
2019-05-17T01:02:46.986Z,997.07
2019-05-17T01:03:47.694Z,997.05
2019-05-17T01:04:47.603Z,997.04
2019-05-17T01:05:47.318Z,997.01
2019-05-17T01:06:47.012Z,996.99
2019-05-17T01:07:47.256Z,996.98
2019-05-17T01:08:59.384Z,996.93
2019-05-17T01:09:47.257Z,996.94
2019-05-17T01:10:47.409Z,996.93
2019-05-17T01:11:47.366Z,996.94
2019-05-17T01:12:48.189Z,996.93
2019-05-17T01:13:46.810Z,996.92
2019-05-17T01:14:46.809Z,996.90
2019-05-17T01:15:47.433Z,996.87
2019-05-17T01:16:47.459Z,996.84
2019-05-17T01:17:47.472Z,996.90
2019-05-17T01:18:47.080Z,996.85
2019-05-17T01:19:47.326Z,996.89
2019-05-17T01:20:47.456Z,996.84
2019-05-17T01:21:47.450Z,996.85
2019-05-17T01:22:47.501Z,996.85
2019-05-17T01:23:46.931Z,996.87
2019-05-17T01:24:46.945Z,996.83
2019-05-17T01:25:48.152Z,996.86
2019-05-17T01:26:47.089Z,996.87
2019-05-17T01:27:47.414Z,996.88
2019-05-17T01:28:47.008Z,996.85
2019-05-17T01:29:47.025Z,996.85
2019-05-17T01:30:47.044Z,996.86
2019-05-17T01:31:47.060Z,996.86
2019-05-17T01:32:47.083Z,996.84
2019-05-17T01:33:47.321Z,996.82
2019-05-17T01:34:47.175Z,996.82
2019-05-17T01:35:47.133Z,996.79
2019-05-17T01:36:47.138Z,996.77
2019-05-17T01:37:47.595Z,996.79
2019-05-17T01:38:47.182Z,996.79
2019-05-17T01:39:47.188Z,996.79
2019-05-17T01:40:47.206Z,996.79
2019-05-17T01:41:47.223Z,996.76
2019-05-17T01:42:47.236Z,996.78
2019-05-17T01:43:47.540Z,996.74
2019-05-17T01:44:47.383Z,996.74
2019-05-17T01:45:48.055Z,996.71
2019-05-17T01:46:47.305Z,996.74
2019-05-17T01:47:47.652Z,996.69
2019-05-17T01:48:47.340Z,996.65
2019-05-17T01:49:47.357Z,996.68
2019-05-17T01:50:47.368Z,996.64
2019-05-17T01:51:47.384Z,996.64
2019-05-17T01:52:47.402Z,996.61
2019-05-17T01:53:47.415Z,996.59
2019-05-17T01:54:47.432Z,996.57
2019-05-17T01:55:47.448Z,996.58
2019-05-17T01:56:47.461Z,996.54
2019-05-17T01:57:47.773Z,996.51
2019-05-17T01:58:47.496Z,996.51
2019-05-17T01:59:47.519Z,996.51
2019-05-17T02:00:47.534Z,996.49
2019-05-17T02:01:47.551Z,996.50
2019-05-17T02:02:47.564Z,996.51
2019-05-17T02:03:47.582Z,996.46
2019-05-17T02:04:47.597Z,996.43
2019-05-17T02:05:47.623Z,996.48
2019-05-17T02:06:47.628Z,996.48
2019-05-17T02:07:47.647Z,996.46
2019-05-17T02:08:47.687Z,996.47
2019-05-17T02:09:47.829Z,996.47
2019-05-17T02:10:47.690Z,996.48
2019-05-17T02:11:47.713Z,996.43
2019-05-17T02:12:48.985Z,996.46
2019-05-17T02:13:47.739Z,996.43
2019-05-17T02:14:47.755Z,996.46
2019-05-17T02:15:47.773Z,996.50
2019-05-17T02:16:47.868Z,996.49
2019-05-17T02:17:47.828Z,996.47
2019-05-17T02:18:47.823Z,996.45
2019-05-17T02:19:47.839Z,996.47
2019-05-17T02:20:47.852Z,996.45
2019-05-17T02:21:48.049Z,996.42
2019-05-17T02:22:47.887Z,996.44
2019-05-17T02:23:47.931Z,996.42
2019-05-17T02:24:47.920Z,996.43
2019-05-17T02:25:47.935Z,996.42
2019-05-17T02:26:47.951Z,996.42
2019-05-17T02:27:48.008Z,996.43
2019-05-17T02:28:47.983Z,996.43
2019-05-17T02:29:48.010Z,996.42
2019-05-17T02:30:48.017Z,996.40
2019-05-17T02:31:48.038Z,996.37
2019-05-17T02:32:48.050Z,996.33
2019-05-17T02:33:48.066Z,996.36
2019-05-17T02:34:48.093Z,996.34
2019-05-17T02:35:48.101Z,996.34
2019-05-17T02:36:48.115Z,996.32
2019-05-17T02:37:48.135Z,996.29
2019-05-17T02:38:48.149Z,996.27
2019-05-17T02:39:58.113Z,996.30
2019-05-17T02:40:48.182Z,996.29
2019-05-17T02:41:48.196Z,996.31
2019-05-17T02:42:48.227Z,996.31
2019-05-17T02:43:48.230Z,996.29
2019-05-17T02:44:48.245Z,996.29
2019-05-17T02:45:48.263Z,996.28
2019-05-17T02:46:48.284Z,996.27
2019-05-17T02:47:48.299Z,996.24
2019-05-17T02:48:48.311Z,996.23
2019-05-17T02:49:48.331Z,996.25
2019-05-17T02:50:48.425Z,996.23
2019-05-17T02:51:48.369Z,996.23
2019-05-17T02:52:48.376Z,996.22
2019-05-17T02:53:48.396Z,996.21
2019-05-17T02:54:48.412Z,996.21
2019-05-17T02:55:48.424Z,996.19
2019-05-17T02:56:48.450Z,996.20
2019-05-17T02:57:48.460Z,996.18
2019-05-17T02:58:48.482Z,996.18
2019-05-17T02:59:48.494Z,996.14
2019-05-17T03:00:48.509Z,996.11
2019-05-17T03:01:48.524Z,996.12
2019-05-17T03:02:48.548Z,996.14
2019-05-17T03:03:48.558Z,996.14
2019-05-17T03:04:48.574Z,996.12
2019-05-17T03:05:48.589Z,996.11
2019-05-17T03:06:48.634Z,996.07
2019-05-17T03:07:48.622Z,996.14
2019-05-17T03:08:48.643Z,996.11
2019-05-17T03:09:48.654Z,996.12
2019-05-17T03:10:48.678Z,996.13
2019-05-17T03:11:48.698Z,996.11
2019-05-17T03:12:48.720Z,996.14
2019-05-17T03:13:48.719Z,996.12
2019-05-17T03:14:48.741Z,996.11
2019-05-17T03:15:48.752Z,996.12
2019-05-17T03:16:48.767Z,996.14
2019-05-17T03:17:48.788Z,996.10
2019-05-17T03:18:48.810Z,996.15
2019-05-17T03:19:48.820Z,996.12
2019-05-17T03:20:48.841Z,996.13
2019-05-17T03:21:48.857Z,996.13
2019-05-17T03:22:48.872Z,996.15
2019-05-17T03:23:48.894Z,996.16
2019-05-17T03:24:48.897Z,996.13
2019-05-17T03:25:48.918Z,996.12
2019-05-17T03:26:52.375Z,996.14
2019-05-17T03:27:48.951Z,996.14
2019-05-17T03:28:48.966Z,996.16
2019-05-17T03:29:48.983Z,996.13
2019-05-17T03:30:49.019Z,996.15
2019-05-17T03:31:57.319Z,996.15
2019-05-17T03:32:49.383Z,996.14
2019-05-17T03:33:55.121Z,996.15
2019-05-17T03:34:55.289Z,996.15
2019-05-17T03:35:49.079Z,996.12
2019-05-17T03:36:49.098Z,996.13
2019-05-17T03:37:49.110Z,996.13
2019-05-17T03:38:49.128Z,996.13
2019-05-17T03:39:49.145Z,996.10
2019-05-17T03:41:17.689Z,996.15
2019-05-17T03:41:49.175Z,996.13
2019-05-17T03:42:49.200Z,996.14
2019-05-17T03:43:49.219Z,996.13
2019-05-17T03:44:49.224Z,996.13
2019-05-17T03:45:49.238Z,996.14
2019-05-17T03:46:49.259Z,996.14
2019-05-17T03:47:49.274Z,996.13
2019-05-17T03:48:49.293Z,996.13
2019-05-17T03:49:49.375Z,996.15
2019-05-17T03:50:49.319Z,996.17
2019-05-17T03:51:49.338Z,996.17
2019-05-17T03:52:49.351Z,996.19
2019-05-17T03:53:49.372Z,996.22
2019-05-17T03:54:52.820Z,996.20
2019-05-17T03:55:49.519Z,996.22
2019-05-17T03:56:49.421Z,996.19
2019-05-17T03:57:52.995Z,996.22
2019-05-17T03:58:52.800Z,996.24
2019-05-17T03:59:52.273Z,996.21
2019-05-17T04:00:49.488Z,996.17
2019-05-17T04:01:52.497Z,996.18
2019-05-17T04:02:49.512Z,996.19
2019-05-17T04:03:49.539Z,996.19
2019-05-17T04:04:52.690Z,996.20
2019-05-17T04:05:52.666Z,996.21
2019-05-17T04:06:52.409Z,996.22
2019-05-17T04:07:49.599Z,996.21
2019-05-17T04:08:52.624Z,996.21
2019-05-17T04:09:52.969Z,996.21
2019-05-17T04:10:52.703Z,996.21
2019-05-17T04:11:49.659Z,996.16
2019-05-17T04:12:52.725Z,996.18
2019-05-17T04:13:49.686Z,996.14
2019-05-17T04:14:53.056Z,996.10
2019-05-17T04:15:52.776Z,996.11
2019-05-17T04:16:49.736Z,996.07
2019-05-17T04:17:52.709Z,996.07
2019-05-17T04:18:49.772Z,996.09
2019-05-17T04:19:52.983Z,996.08
2019-05-17T04:20:52.706Z,996.11
2019-05-17T04:21:49.817Z,996.18
2019-05-17T04:22:52.555Z,996.14
2019-05-17T04:23:49.849Z,996.18
2019-05-17T04:24:52.334Z,996.17
2019-05-17T04:25:52.386Z,996.14
2019-05-17T04:26:52.420Z,996.14
2019-05-17T04:27:53.388Z,996.15
2019-05-17T04:28:52.967Z,996.18
2019-05-17T04:29:53.025Z,996.21
2019-05-17T04:30:52.637Z,996.21
2019-05-17T04:31:49.978Z,996.21
2019-05-17T04:32:52.676Z,996.23
2019-05-17T04:33:53.338Z,996.23
2019-05-17T04:34:52.606Z,996.18
2019-05-17T04:35:53.797Z,996.18
2019-05-17T04:36:52.227Z,996.19
2019-05-17T04:37:52.976Z,996.19
2019-05-17T04:38:52.635Z,996.16
2019-05-17T04:39:52.517Z,996.15
2019-05-17T04:40:53.452Z,996.12
2019-05-17T04:41:54.371Z,996.14
2019-05-17T04:42:52.656Z,996.14
2019-05-17T04:43:52.902Z,996.13
2019-05-17T04:44:52.741Z,996.09
2019-05-17T04:45:53.201Z,996.10
2019-05-17T04:46:53.357Z,996.11
2019-05-17T04:47:52.680Z,996.14
2019-05-17T04:48:53.331Z,996.13
2019-05-17T04:49:53.292Z,996.10
2019-05-17T04:50:53.318Z,996.09
2019-05-17T04:51:52.560Z,996.10
2019-05-17T04:52:53.454Z,996.09
2019-05-17T04:53:52.975Z,996.06
2019-05-17T04:54:53.434Z,996.07
2019-05-17T04:55:53.771Z,996.06
2019-05-17T04:56:53.085Z,996.09
2019-05-17T04:57:53.022Z,996.04
2019-05-17T04:58:54.143Z,996.09
2019-05-17T04:59:52.348Z,996.09
2019-05-17T05:00:53.316Z,996.09
2019-05-17T05:01:53.543Z,996.09
2019-05-17T05:02:52.709Z,996.04
2019-05-17T05:03:52.478Z,996.11
2019-05-17T05:04:53.176Z,996.03
2019-05-17T05:05:53.528Z,996.06
2019-05-17T05:06:52.478Z,996.04
2019-05-17T05:07:53.237Z,996.05
2019-05-17T05:08:52.881Z,996.06
2019-05-17T05:09:52.314Z,996.06
2019-05-17T05:10:53.556Z,996.08
2019-05-17T05:12:00.365Z,996.15
2019-05-17T05:12:52.441Z,996.08
2019-05-17T05:13:53.114Z,996.09
2019-05-17T05:14:52.333Z,996.09
2019-05-17T05:15:52.169Z,996.08
2019-05-17T05:16:52.904Z,996.05
2019-05-17T05:17:52.722Z,996.05
2019-05-17T05:18:52.107Z,996.00
2019-05-17T05:19:53.035Z,996.00
2019-05-17T05:20:52.629Z,996.04
2019-05-17T05:21:52.030Z,996.02
2019-05-17T05:22:52.708Z,996.02
2019-05-17T05:23:51.799Z,995.99
2019-05-17T05:24:52.522Z,995.97
2019-05-17T05:25:52.214Z,995.98
2019-05-17T05:26:51.824Z,996.01
2019-05-17T05:27:51.655Z,995.97
2019-05-17T05:28:52.817Z,996.02
2019-05-17T05:29:52.132Z,996.04
2019-05-17T05:30:52.676Z,996.02
2019-05-17T05:31:51.782Z,996.00
2019-05-17T05:32:52.503Z,996.01
2019-05-17T05:33:52.229Z,996.01
2019-05-17T05:34:51.999Z,996.03
2019-05-17T05:35:51.694Z,996.05
2019-05-17T05:36:52.496Z,996.04
2019-05-17T05:37:52.560Z,996.08
2019-05-17T05:38:51.573Z,996.06
2019-05-17T05:39:53.951Z,996.08
2019-05-17T05:40:52.163Z,996.06
2019-05-17T05:41:51.863Z,996.06
2019-05-17T05:42:51.595Z,996.08
2019-05-17T05:43:52.579Z,996.04
2019-05-17T05:44:52.231Z,996.03
2019-05-17T05:45:53.466Z,996.05
2019-05-17T05:46:51.523Z,996.01
2019-05-17T05:47:52.157Z,995.99
2019-05-17T05:48:52.182Z,996.04
2019-05-17T05:49:52.054Z,996.02
2019-05-17T05:50:52.115Z,996.03
2019-05-17T05:51:52.325Z,996.06
2019-05-17T05:52:52.432Z,996.06
2019-05-17T05:53:52.218Z,996.09
2019-05-17T05:54:52.077Z,996.08
2019-05-17T05:55:51.837Z,996.10
2019-05-17T05:56:52.438Z,996.12
2019-05-17T05:57:52.184Z,996.10
2019-05-17T05:58:52.275Z,996.07
2019-05-17T05:59:51.799Z,996.09
2019-05-17T06:00:53.109Z,996.02
2019-05-17T06:01:52.503Z,996.03
2019-05-17T06:02:52.336Z,996.07
2019-05-17T06:03:52.016Z,996.01
2019-05-17T06:04:51.928Z,996.05
2019-05-17T06:05:52.515Z,996.06
2019-05-17T06:06:52.196Z,996.06
2019-05-17T06:07:52.190Z,996.06
2019-05-17T06:08:52.107Z,996.05
2019-05-17T06:09:51.870Z,996.08
2019-05-17T06:10:53.166Z,996.07
2019-05-17T06:11:51.995Z,996.05
2019-05-17T06:12:51.808Z,996.06
2019-05-17T06:13:52.447Z,996.08
2019-05-17T06:14:52.351Z,996.07
2019-05-17T06:15:51.868Z,996.06
2019-05-17T06:16:52.145Z,995.99
2019-05-17T06:17:51.992Z,996.03
2019-05-17T06:18:51.738Z,996.01
2019-05-17T06:19:51.840Z,996.01
2019-05-17T06:20:52.412Z,996.02
2019-05-17T06:21:52.062Z,996.02
2019-05-17T06:22:51.861Z,995.99
2019-05-17T06:23:51.770Z,996.01
2019-05-17T06:24:52.122Z,996.04
2019-05-17T06:25:52.224Z,996.03
2019-05-17T06:26:52.542Z,996.03
2019-05-17T06:27:52.108Z,995.99
2019-05-17T06:28:51.935Z,996.03
2019-05-17T06:29:51.871Z,996.04
2019-05-17T06:30:52.208Z,996.08
2019-05-17T06:31:52.022Z,996.06
2019-05-17T06:32:51.919Z,996.05
2019-05-17T06:33:52.452Z,996.04
2019-05-17T06:34:51.955Z,996.01
2019-05-17T06:35:52.511Z,996.02
2019-05-17T06:36:52.809Z,996.02
2019-05-17T06:37:53.601Z,996.06
2019-05-17T06:38:52.740Z,996.04
2019-05-17T06:39:52.621Z,996.02
2019-05-17T06:40:52.454Z,996.00
2019-05-17T06:41:52.268Z,996.02
2019-05-17T06:42:52.540Z,995.98
2019-05-17T06:43:52.445Z,996.02
2019-05-17T06:44:52.419Z,996.03
2019-05-17T06:45:52.374Z,996.05
2019-05-17T06:46:52.157Z,996.03
2019-05-17T06:47:52.171Z,996.05
2019-05-17T06:48:52.980Z,996.06
2019-05-17T06:49:53.434Z,996.07
2019-05-17T06:50:52.229Z,996.05
2019-05-17T06:51:52.238Z,996.03
2019-05-17T06:52:53.269Z,996.05
2019-05-17T06:53:52.505Z,996.05
2019-05-17T06:54:52.583Z,996.03
2019-05-17T06:55:53.404Z,996.05
2019-05-17T06:56:52.634Z,996.04
2019-05-17T06:57:52.783Z,996.01
2019-05-17T06:58:52.359Z,996.02
2019-05-17T06:59:52.529Z,996.03
2019-05-17T07:00:52.460Z,996.01
2019-05-17T07:01:52.412Z,995.98
2019-05-17T07:02:52.431Z,995.98
2019-05-17T07:03:52.447Z,996.01
2019-05-17T07:04:52.459Z,996.03
2019-05-17T07:05:52.476Z,996.00
2019-05-17T07:06:52.495Z,995.97
2019-05-17T07:07:52.515Z,995.93
2019-05-17T07:08:52.527Z,995.93
2019-05-17T07:09:52.641Z,995.89
2019-05-17T07:10:52.565Z,995.90
2019-05-17T07:11:52.582Z,995.89
2019-05-17T07:12:58.584Z,995.91
2019-05-17T07:13:52.611Z,995.91
2019-05-17T07:14:52.630Z,995.93
2019-05-17T07:15:52.647Z,995.93
2019-05-17T07:16:52.662Z,995.90
2019-05-17T07:17:52.683Z,995.91
2019-05-17T07:18:52.699Z,995.91
2019-05-17T07:19:52.715Z,995.93
2019-05-17T07:20:52.733Z,995.92
2019-05-17T07:21:52.747Z,995.92
2019-05-17T07:22:52.766Z,995.90
2019-05-17T07:23:52.787Z,995.92
2019-05-17T07:24:52.806Z,995.89
2019-05-17T07:25:53.034Z,995.87
2019-05-17T07:26:52.833Z,995.83
2019-05-17T07:27:52.851Z,995.82
2019-05-17T07:28:52.876Z,995.83
2019-05-17T07:29:52.887Z,995.83
2019-05-17T07:30:52.909Z,995.87
2019-05-17T07:31:52.916Z,995.84
2019-05-17T07:32:52.941Z,995.83
2019-05-17T07:33:53.070Z,995.86
2019-05-17T07:34:52.986Z,995.83
2019-05-17T07:35:53.026Z,995.81
2019-05-17T07:36:53.003Z,995.83
2019-05-17T07:37:53.021Z,995.83
2019-05-17T07:38:53.045Z,995.80
2019-05-17T07:40:01.087Z,995.83
2019-05-17T07:40:53.070Z,995.84
2019-05-17T07:41:53.097Z,995.85
2019-05-17T07:43:06.678Z,995.81
2019-05-17T07:43:53.132Z,995.74
2019-05-17T07:44:53.266Z,995.78
2019-05-17T07:45:53.168Z,995.75
2019-05-17T07:46:53.178Z,995.77
2019-05-17T07:47:53.190Z,995.76
2019-05-17T07:48:53.204Z,995.75
2019-05-17T07:49:54.654Z,995.77
2019-05-17T07:50:53.245Z,995.72
2019-05-17T07:51:53.264Z,995.72
2019-05-17T07:52:53.285Z,995.69
2019-05-17T07:53:53.296Z,995.68
2019-05-17T07:54:53.439Z,995.67
2019-05-17T07:55:53.335Z,995.70
2019-05-17T07:56:53.345Z,995.66
2019-05-17T07:57:53.362Z,995.64
2019-05-17T07:58:53.378Z,995.68
2019-05-17T07:59:53.393Z,995.65
2019-05-17T08:00:53.418Z,995.64
2019-05-17T08:01:53.424Z,995.66
2019-05-17T08:02:53.452Z,995.61
2019-05-17T08:03:53.475Z,995.61
2019-05-17T08:04:53.488Z,995.61
2019-05-17T08:05:53.506Z,995.60
2019-05-17T08:06:53.527Z,995.59
2019-05-17T08:07:53.534Z,995.58
2019-05-17T08:08:53.636Z,995.58
2019-05-17T08:09:53.566Z,995.57
2019-05-17T08:10:53.588Z,995.57
2019-05-17T08:11:53.602Z,995.55
2019-05-17T08:12:53.628Z,995.53
2019-05-17T08:13:53.648Z,995.48
2019-05-17T08:14:53.654Z,995.49
2019-05-17T08:15:53.672Z,995.43
2019-05-17T08:16:53.697Z,995.45
2019-05-17T08:17:53.712Z,995.45
2019-05-17T08:18:53.721Z,995.50
2019-05-17T08:19:53.740Z,995.47
2019-05-17T08:20:53.763Z,995.50
2019-05-17T08:21:53.788Z,995.44
2019-05-17T08:22:53.804Z,995.49
2019-05-17T08:23:53.818Z,995.47
2019-05-17T08:24:53.840Z,995.48
2019-05-17T08:25:56.331Z,995.43
2019-05-17T08:26:53.976Z,995.39
2019-05-17T08:27:53.898Z,995.43
2019-05-17T08:28:53.926Z,995.43
2019-05-17T08:29:53.911Z,995.40
2019-05-17T08:30:53.932Z,995.43
2019-05-17T08:31:53.958Z,995.43
2019-05-17T08:32:53.962Z,995.41
2019-05-17T08:33:53.989Z,995.36
2019-05-17T08:34:54.012Z,995.39
2019-05-17T08:35:54.030Z,995.40
2019-05-17T08:36:54.039Z,995.39
2019-05-17T08:37:54.071Z,995.40
2019-05-17T08:38:54.072Z,995.40
2019-05-17T08:39:54.114Z,995.37
2019-05-17T08:40:54.102Z,995.37
2019-05-17T08:41:54.315Z,995.36
2019-05-17T08:42:54.140Z,995.37
2019-05-17T08:43:54.169Z,995.35
2019-05-17T08:44:54.185Z,995.37
2019-05-17T08:45:54.188Z,995.36
2019-05-17T08:46:54.208Z,995.33
2019-05-17T08:47:54.230Z,995.36
2019-05-17T08:48:54.238Z,995.36
2019-05-17T08:49:54.261Z,995.35
2019-05-17T08:50:54.276Z,995.34
2019-05-17T08:51:54.293Z,995.35
2019-05-17T08:52:54.309Z,995.36
2019-05-17T08:53:54.327Z,995.33
2019-05-17T08:54:54.348Z,995.36
2019-05-17T08:55:54.365Z,995.38
2019-05-17T08:56:54.379Z,995.37
2019-05-17T08:57:54.406Z,995.39
2019-05-17T08:58:54.445Z,995.35
2019-05-17T08:59:54.432Z,995.38
2019-05-17T09:00:54.449Z,995.38
2019-05-17T09:01:54.474Z,995.38
2019-05-17T09:02:54.486Z,995.38
2019-05-17T09:03:54.504Z,995.38
2019-05-17T09:04:54.520Z,995.41
2019-05-17T09:05:54.537Z,995.41
2019-05-17T09:06:54.553Z,995.34
2019-05-17T09:07:54.581Z,995.35
2019-05-17T09:08:54.611Z,995.30
2019-05-17T09:09:54.607Z,995.27
2019-05-17T09:10:54.625Z,995.26
2019-05-17T09:11:54.645Z,995.25
2019-05-17T09:12:54.661Z,995.23
2019-05-17T09:13:58.513Z,995.24
2019-05-17T09:14:54.702Z,995.26
2019-05-17T09:15:54.721Z,995.24
2019-05-17T09:16:54.732Z,995.27
2019-05-17T09:17:54.751Z,995.26
2019-05-17T09:18:54.771Z,995.21
2019-05-17T09:19:54.789Z,995.25
2019-05-17T09:20:54.803Z,995.27
2019-05-17T09:21:54.822Z,995.25
2019-05-17T09:22:54.844Z,995.23
2019-05-17T09:23:54.868Z,995.22
2019-05-17T09:24:54.886Z,995.21
2019-05-17T09:25:54.904Z,995.19
2019-05-17T09:26:54.912Z,995.19
2019-05-17T09:27:54.932Z,995.20
2019-05-17T09:28:54.948Z,995.16
2019-05-17T09:29:54.967Z,995.12
2019-05-17T09:30:54.984Z,995.11
2019-05-17T09:31:55.006Z,995.14
2019-05-17T09:32:55.032Z,995.11
2019-05-17T09:33:55.039Z,995.07
2019-05-17T09:34:55.060Z,995.09
2019-05-17T09:35:55.081Z,995.08
2019-05-17T09:36:55.096Z,995.09
2019-05-17T09:37:55.113Z,995.12
2019-05-17T09:38:55.130Z,995.12
2019-05-17T09:39:55.152Z,995.13
2019-05-17T09:40:55.164Z,995.08
2019-05-17T09:41:55.190Z,995.07
2019-05-17T09:42:55.206Z,995.06
2019-05-17T09:44:07.755Z,995.07
2019-05-17T09:44:55.237Z,995.05
2019-05-17T09:45:55.254Z,995.04
2019-05-17T09:46:55.271Z,995.01
2019-05-17T09:47:55.293Z,995.07
2019-05-17T09:48:55.316Z,995.03
2019-05-17T09:49:55.324Z,995.05
2019-05-17T09:50:55.344Z,995.06
2019-05-17T09:51:55.363Z,995.07
2019-05-17T09:52:55.379Z,995.06
2019-05-17T09:53:55.396Z,995.05
2019-05-17T09:54:55.416Z,995.04
2019-05-17T09:55:55.436Z,995.05
2019-05-17T09:56:55.455Z,995.04
2019-05-17T09:57:55.472Z,994.98
2019-05-17T09:58:55.491Z,995.00
2019-05-17T09:59:56.000Z,994.97
2019-05-17T10:00:55.523Z,994.95
2019-05-17T10:01:55.546Z,994.91
2019-05-17T10:02:55.560Z,994.91
2019-05-17T10:03:55.578Z,994.88
2019-05-17T10:04:55.593Z,994.92
2019-05-17T10:05:55.613Z,994.94
2019-05-17T10:06:55.632Z,994.92
2019-05-17T10:07:55.652Z,994.96
2019-05-17T10:08:55.670Z,994.97
2019-05-17T10:09:55.710Z,994.93
2019-05-17T10:11:08.129Z,995.01
2019-05-17T10:11:55.722Z,994.90
2019-05-17T10:12:55.739Z,994.86
2019-05-17T10:13:58.357Z,994.82
2019-05-17T10:14:55.781Z,994.81
2019-05-17T10:15:55.811Z,994.79
2019-05-17T10:16:55.812Z,994.81
2019-05-17T10:17:55.833Z,994.79
2019-05-17T10:18:55.849Z,994.80
2019-05-17T10:19:55.873Z,994.81
2019-05-17T10:20:56.107Z,994.83
2019-05-17T10:21:55.904Z,994.81
2019-05-17T10:22:55.920Z,994.84
2019-05-17T10:23:55.939Z,994.83
2019-05-17T10:24:55.959Z,994.81
2019-05-17T10:25:55.981Z,994.82
2019-05-17T10:26:55.997Z,994.86
2019-05-17T10:27:56.020Z,994.81
2019-05-17T10:28:56.031Z,994.84
2019-05-17T10:29:56.048Z,994.88
2019-05-17T10:30:56.066Z,994.84
2019-05-17T10:31:56.092Z,994.79
2019-05-17T10:32:56.104Z,994.77
2019-05-17T10:33:58.297Z,994.83
2019-05-17T10:34:56.142Z,994.78
2019-05-17T10:35:56.161Z,994.81
2019-05-17T10:36:56.177Z,994.80
2019-05-17T10:37:56.194Z,994.78
2019-05-17T10:38:56.213Z,994.78
2019-05-17T10:39:56.238Z,994.76
2019-05-17T10:40:56.247Z,994.75
2019-05-17T10:41:56.269Z,994.76
2019-05-17T10:42:56.286Z,994.74
2019-05-17T10:43:56.308Z,994.78
2019-05-17T10:44:56.341Z,994.72
2019-05-17T10:45:56.343Z,994.72
2019-05-17T10:46:56.361Z,994.73
2019-05-17T10:47:56.378Z,994.76
2019-05-17T10:48:56.399Z,994.76
2019-05-17T10:49:56.418Z,994.73
2019-05-17T10:50:56.434Z,994.79
2019-05-17T10:51:56.456Z,994.75
2019-05-17T10:52:56.474Z,994.74
2019-05-17T10:53:56.493Z,994.73
2019-05-17T10:54:56.508Z,994.73
2019-05-17T10:55:56.526Z,994.71
2019-05-17T10:56:56.550Z,994.72
2019-05-17T10:57:56.561Z,994.72
2019-05-17T10:58:56.584Z,994.73
2019-05-17T10:59:56.599Z,994.71
2019-05-17T11:00:56.621Z,994.68
2019-05-17T11:01:56.691Z,994.66
2019-05-17T11:02:56.737Z,994.70
2019-05-17T11:03:56.675Z,994.71
2019-05-17T11:04:56.692Z,994.72
2019-05-17T11:05:56.724Z,994.73
2019-05-17T11:06:56.731Z,994.75
2019-05-17T11:07:56.746Z,994.74
2019-05-17T11:08:56.773Z,994.74
2019-05-17T11:09:56.783Z,994.76
2019-05-17T11:10:56.801Z,994.75
2019-05-17T11:11:56.821Z,994.76
2019-05-17T11:12:56.838Z,994.77
2019-05-17T11:13:56.855Z,994.74
2019-05-17T11:15:10.490Z,994.71
2019-05-17T11:15:56.895Z,994.72
2019-05-17T11:16:56.913Z,994.74
2019-05-17T11:17:56.932Z,994.76
2019-05-17T11:18:56.982Z,994.73
2019-05-17T11:19:56.971Z,994.77
2019-05-17T11:20:56.985Z,994.74
2019-05-17T11:21:57.003Z,994.76
2019-05-17T11:22:57.033Z,994.75
2019-05-17T11:23:57.044Z,994.78
2019-05-17T11:24:57.067Z,994.76
2019-05-17T11:25:57.096Z,994.77
2019-05-17T11:26:57.097Z,994.78
2019-05-17T11:27:57.120Z,994.81
2019-05-17T11:28:57.135Z,994.83
2019-05-17T11:29:57.150Z,994.75
2019-05-17T11:30:57.170Z,994.79
2019-05-17T11:31:57.193Z,994.77
2019-05-17T11:32:57.220Z,994.72
2019-05-17T11:33:57.233Z,994.74
2019-05-17T11:34:57.249Z,994.73
2019-05-17T11:35:57.263Z,994.70
2019-05-17T11:36:57.288Z,994.71
2019-05-17T11:37:57.301Z,994.73
2019-05-17T11:38:57.324Z,994.75
2019-05-17T11:39:57.346Z,994.76
2019-05-17T11:40:57.358Z,994.73
2019-05-17T11:41:57.376Z,994.74
2019-05-17T11:42:57.451Z,994.73
2019-05-17T11:43:57.425Z,994.70
2019-05-17T11:44:57.446Z,994.70
2019-05-17T11:45:57.456Z,994.72
2019-05-17T11:46:57.472Z,994.73
2019-05-17T11:47:57.503Z,994.74
2019-05-17T11:48:57.522Z,994.71
2019-05-17T11:49:57.528Z,994.71
2019-05-17T11:50:57.548Z,994.73
2019-05-17T11:51:57.572Z,994.68
2019-05-17T11:52:57.604Z,994.67
2019-05-17T11:53:57.608Z,994.68
2019-05-17T11:54:57.625Z,994.63
2019-05-17T11:55:57.647Z,994.61
2019-05-17T11:56:57.660Z,994.60
2019-05-17T11:57:57.683Z,994.60
2019-05-17T11:58:57.709Z,994.62
2019-05-17T11:59:57.736Z,994.58
2019-05-17T12:00:57.746Z,994.56
2019-05-17T12:01:57.772Z,994.58
2019-05-17T12:02:57.778Z,994.56
2019-05-17T12:03:57.886Z,994.57
2019-05-17T12:04:58.003Z,994.53
2019-05-17T12:05:57.868Z,994.56
2019-05-17T12:06:57.866Z,994.52
2019-05-17T12:07:57.926Z,994.55
2019-05-17T12:08:57.909Z,994.55
2019-05-17T12:09:57.927Z,994.56
2019-05-17T12:10:58.068Z,994.55
2019-05-17T12:11:57.970Z,994.56
2019-05-17T12:12:57.976Z,994.57
2019-05-17T12:13:58.009Z,994.52
2019-05-17T12:14:58.661Z,994.53
2019-05-17T12:15:58.050Z,994.54
2019-05-17T12:16:58.075Z,994.54
2019-05-17T12:17:58.142Z,994.51
2019-05-17T12:18:58.083Z,994.48
2019-05-17T12:19:58.107Z,994.49
2019-05-17T12:20:58.124Z,994.48
2019-05-17T12:21:58.150Z,994.52
2019-05-17T12:22:58.465Z,994.48
2019-05-17T12:23:58.189Z,994.46
2019-05-17T12:24:58.202Z,994.46
2019-05-17T12:25:58.216Z,994.48
2019-05-17T12:26:58.240Z,994.47
2019-05-17T12:27:58.260Z,994.46
2019-05-17T12:28:58.272Z,994.45